sensor_id;sensor_type;location;lat;lon;timestamp;P1;durP1;ratioP1;P2;durP2;ratioP2
77214;SDS011;66210;53.282;9.864;2023-04-24T00:01:13;7.03;;;4.15;;
77214;SDS011;66210;53.282;9.864;2023-04-24T00:03:41;6.88;;;4.07;;
77214;SDS011;66210;53.282;9.864;2023-04-24T00:06:08;5.10;;;3.42;;
77214;SDS011;66210;53.282;9.864;2023-04-24T00:08:35;6.03;;;3.70;;
77214;SDS011;66210;53.282;9.864;2023-04-24T00:11:02;4.65;;;3.40;;
77214;SDS011;66210;53.282;9.864;2023-04-24T00:13:29;5.32;;;3.95;;
77214;SDS011;66210;53.282;9.864;2023-04-24T00:15:56;6.00;;;3.63;;
77214;SDS011;66210;53.282;9.864;2023-04-24T00:18:22;6.03;;;3.63;;
77214;SDS011;66210;53.282;9.864;2023-04-24T00:20:49;6.40;;;3.67;;
77214;SDS011;66210;53.282;9.864;2023-04-24T00:23:16;4.45;;;3.40;;
77214;SDS011;66210;53.282;9.864;2023-04-24T00:25:43;5.63;;;4.20;;
77214;SDS011;66210;53.282;9.864;2023-04-24T00:28:09;8.13;;;3.55;;
77214;SDS011;66210;53.282;9.864;2023-04-24T00:30:36;5.22;;;3.70;;
77214;SDS011;66210;53.282;9.864;2023-04-24T00:33:03;5.28;;;3.72;;
77214;SDS011;66210;53.282;9.864;2023-04-24T00:35:29;4.80;;;3.80;;
77214;SDS011;66210;53.282;9.864;2023-04-24T00:37:56;4.95;;;3.70;;
77214;SDS011;66210;53.282;9.864;2023-04-24T00:40:23;3.58;;;3.17;;
77214;SDS011;66210;53.282;9.864;2023-04-24T00:42:49;4.40;;;3.70;;
77214;SDS011;66210;53.282;9.864;2023-04-24T00:45:16;4.18;;;3.08;;
77214;SDS011;66210;53.282;9.864;2023-04-24T00:47:43;4.65;;;3.60;;
77214;SDS011;66210;53.282;9.864;2023-04-24T00:50:11;3.90;;;3.20;;
77214;SDS011;66210;53.282;9.864;2023-04-24T00:55:08;4.03;;;3.38;;
77214;SDS011;66210;53.282;9.864;2023-04-24T00:57:35;5.65;;;3.83;;
77214;SDS011;66210;53.282;9.864;2023-04-24T01:00:02;4.45;;;3.70;;
77214;SDS011;66210;53.282;9.864;2023-04-24T01:02:31;4.85;;;3.92;;
77214;SDS011;66210;53.282;9.864;2023-04-24T01:05:01;5.07;;;3.65;;
77214;SDS011;66210;53.282;9.864;2023-04-24T01:07:27;4.20;;;3.55;;
77214;SDS011;66210;53.282;9.864;2023-04-24T01:09:55;5.28;;;3.35;;
77214;SDS011;66210;53.282;9.864;2023-04-24T01:12:22;5.57;;;3.47;;
77214;SDS011;66210;53.282;9.864;2023-04-24T01:14:48;5.82;;;3.60;;
77214;SDS011;66210;53.282;9.864;2023-04-24T01:17:15;5.90;;;3.60;;
77214;SDS011;66210;53.282;9.864;2023-04-24T01:19:42;3.95;;;3.00;;
77214;SDS011;66210;53.282;9.864;2023-04-24T01:22:13;3.90;;;2.90;;
77214;SDS011;66210;53.282;9.864;2023-04-24T01:24:41;5.43;;;3.28;;
77214;SDS011;66210;53.282;9.864;2023-04-24T01:27:09;4.65;;;3.22;;
77214;SDS011;66210;53.282;9.864;2023-04-24T01:29:37;3.72;;;2.72;;
77214;SDS011;66210;53.282;9.864;2023-04-24T01:32:04;3.78;;;2.88;;
77214;SDS011;66210;53.282;9.864;2023-04-24T01:34:31;5.93;;;3.15;;
77214;SDS011;66210;53.282;9.864;2023-04-24T01:36:58;3.45;;;3.10;;
77214;SDS011;66210;53.282;9.864;2023-04-24T01:39:25;6.10;;;2.83;;
77214;SDS011;66210;53.282;9.864;2023-04-24T01:41:54;5.70;;;2.78;;
77214;SDS011;66210;53.282;9.864;2023-04-24T01:44:22;4.28;;;2.92;;
77214;SDS011;66210;53.282;9.864;2023-04-24T01:46:49;3.70;;;3.05;;
77214;SDS011;66210;53.282;9.864;2023-04-24T01:49:17;3.22;;;2.80;;
77214;SDS011;66210;53.282;9.864;2023-04-24T01:51:43;5.10;;;2.92;;
77214;SDS011;66210;53.282;9.864;2023-04-24T01:54:10;3.88;;;3.03;;
77214;SDS011;66210;53.282;9.864;2023-04-24T01:56:39;2.85;;;2.38;;
77214;SDS011;66210;53.282;9.864;2023-04-24T01:59:09;3.58;;;2.40;;
77214;SDS011;66210;53.282;9.864;2023-04-24T02:01:37;3.38;;;2.72;;
77214;SDS011;66210;53.282;9.864;2023-04-24T02:04:05;3.95;;;2.50;;
77214;SDS011;66210;53.282;9.864;2023-04-24T02:06:34;3.72;;;2.80;;
77214;SDS011;66210;53.282;9.864;2023-04-24T02:09:00;3.38;;;2.60;;
77214;SDS011;66210;53.282;9.864;2023-04-24T02:11:27;4.18;;;2.58;;
77214;SDS011;66210;53.282;9.864;2023-04-24T02:13:54;3.33;;;2.60;;
77214;SDS011;66210;53.282;9.864;2023-04-24T02:16:21;4.50;;;2.97;;
77214;SDS011;66210;53.282;9.864;2023-04-24T02:18:47;4.40;;;2.55;;
77214;SDS011;66210;53.282;9.864;2023-04-24T02:21:14;2.88;;;2.45;;
77214;SDS011;66210;53.282;9.864;2023-04-24T02:23:41;3.55;;;2.28;;
77214;SDS011;66210;53.282;9.864;2023-04-24T02:26:07;4.45;;;2.40;;
77214;SDS011;66210;53.282;9.864;2023-04-24T02:28:34;3.08;;;2.10;;
77214;SDS011;66210;53.282;9.864;2023-04-24T02:31:01;5.95;;;2.15;;
77214;SDS011;66210;53.282;9.864;2023-04-24T02:33:28;3.28;;;2.45;;
77214;SDS011;66210;53.282;9.864;2023-04-24T02:35:55;4.38;;;2.63;;
77214;SDS011;66210;53.282;9.864;2023-04-24T02:38:22;3.20;;;2.40;;
77214;SDS011;66210;53.282;9.864;2023-04-24T02:40:48;2.40;;;2.10;;
77214;SDS011;66210;53.282;9.864;2023-04-24T02:43:15;3.42;;;2.30;;
77214;SDS011;66210;53.282;9.864;2023-04-24T02:45:42;2.40;;;2.10;;
77214;SDS011;66210;53.282;9.864;2023-04-24T02:48:09;2.15;;;1.95;;
77214;SDS011;66210;53.282;9.864;2023-04-24T02:50:35;3.65;;;2.00;;
77214;SDS011;66210;53.282;9.864;2023-04-24T02:53:02;5.78;;;2.38;;
77214;SDS011;66210;53.282;9.864;2023-04-24T02:55:29;5.25;;;2.33;;
77214;SDS011;66210;53.282;9.864;2023-04-24T02:57:56;2.83;;;1.95;;
77214;SDS011;66210;53.282;9.864;2023-04-24T03:00:23;2.75;;;1.88;;
77214;SDS011;66210;53.282;9.864;2023-04-24T03:02:50;2.35;;;1.75;;
77214;SDS011;66210;53.282;9.864;2023-04-24T03:05:17;2.38;;;1.70;;
77214;SDS011;66210;53.282;9.864;2023-04-24T03:07:44;1.67;;;1.50;;
77214;SDS011;66210;53.282;9.864;2023-04-24T03:10:11;2.03;;;1.70;;
77214;SDS011;66210;53.282;9.864;2023-04-24T03:12:38;1.55;;;1.45;;
77214;SDS011;66210;53.282;9.864;2023-04-24T03:15:05;2.05;;;1.70;;
77214;SDS011;66210;53.282;9.864;2023-04-24T03:17:32;3.30;;;1.70;;
77214;SDS011;66210;53.282;9.864;2023-04-24T03:19:59;4.35;;;1.90;;
77214;SDS011;66210;53.282;9.864;2023-04-24T03:22:26;2.25;;;1.70;;
77214;SDS011;66210;53.282;9.864;2023-04-24T03:24:52;1.65;;;1.50;;
77214;SDS011;66210;53.282;9.864;2023-04-24T03:27:21;2.88;;;1.90;;
77214;SDS011;66210;53.282;9.864;2023-04-24T03:29:47;2.05;;;1.60;;
77214;SDS011;66210;53.282;9.864;2023-04-24T03:32:14;5.40;;;1.70;;
77214;SDS011;66210;53.282;9.864;2023-04-24T03:34:41;2.83;;;1.60;;
77214;SDS011;66210;53.282;9.864;2023-04-24T03:37:08;1.45;;;1.35;;
77214;SDS011;66210;53.282;9.864;2023-04-24T03:39:34;1.52;;;1.40;;
77214;SDS011;66210;53.282;9.864;2023-04-24T03:42:01;1.88;;;1.67;;
77214;SDS011;66210;53.282;9.864;2023-04-24T03:44:28;1.80;;;1.60;;
77214;SDS011;66210;53.282;9.864;2023-04-24T03:46:54;1.70;;;1.45;;
77214;SDS011;66210;53.282;9.864;2023-04-24T03:49:21;1.77;;;1.45;;
77214;SDS011;66210;53.282;9.864;2023-04-24T03:51:48;2.75;;;1.45;;
77214;SDS011;66210;53.282;9.864;2023-04-24T03:54:15;2.40;;;1.63;;
77214;SDS011;66210;53.282;9.864;2023-04-24T03:56:42;1.75;;;1.40;;
77214;SDS011;66210;53.282;9.864;2023-04-24T03:59:08;1.95;;;1.70;;
77214;SDS011;66210;53.282;9.864;2023-04-24T04:01:35;2.22;;;1.60;;
77214;SDS011;66210;53.282;9.864;2023-04-24T04:04:04;1.50;;;1.40;;
77214;SDS011;66210;53.282;9.864;2023-04-24T04:06:31;2.28;;;1.60;;
77214;SDS011;66210;53.282;9.864;2023-04-24T04:08:58;2.42;;;1.50;;
77214;SDS011;66210;53.282;9.864;2023-04-24T04:11:25;1.58;;;1.48;;
77214;SDS011;66210;53.282;9.864;2023-04-24T04:13:52;1.75;;;1.40;;
77214;SDS011;66210;53.282;9.864;2023-04-24T04:16:19;4.60;;;1.40;;
77214;SDS011;66210;53.282;9.864;2023-04-24T04:18:45;1.55;;;1.45;;
77214;SDS011;66210;53.282;9.864;2023-04-24T04:21:12;1.75;;;1.60;;
77214;SDS011;66210;53.282;9.864;2023-04-24T04:23:39;5.40;;;1.50;;
77214;SDS011;66210;53.282;9.864;2023-04-24T04:26:06;1.40;;;1.30;;
77214;SDS011;66210;53.282;9.864;2023-04-24T04:28:34;1.50;;;1.40;;
77214;SDS011;66210;53.282;9.864;2023-04-24T04:31:01;1.67;;;1.50;;
77214;SDS011;66210;53.282;9.864;2023-04-24T04:33:28;2.42;;;1.35;;
77214;SDS011;66210;53.282;9.864;2023-04-24T04:35:54;1.15;;;1.05;;
77214;SDS011;66210;53.282;9.864;2023-04-24T04:38:25;1.63;;;1.40;;
77214;SDS011;66210;53.282;9.864;2023-04-24T04:40:56;1.50;;;1.20;;
77214;SDS011;66210;53.282;9.864;2023-04-24T04:43:23;2.05;;;1.40;;
77214;SDS011;66210;53.282;9.864;2023-04-24T04:45:51;1.65;;;1.30;;
77214;SDS011;66210;53.282;9.864;2023-04-24T04:48:18;1.63;;;1.10;;
77214;SDS011;66210;53.282;9.864;2023-04-24T04:50:45;1.40;;;1.30;;
77214;SDS011;66210;53.282;9.864;2023-04-24T04:53:12;1.88;;;1.42;;
77214;SDS011;66210;53.282;9.864;2023-04-24T04:55:39;2.50;;;1.20;;
77214;SDS011;66210;53.282;9.864;2023-04-24T04:58:06;3.72;;;1.35;;
77214;SDS011;66210;53.282;9.864;2023-04-24T05:00:32;1.65;;;1.50;;
77214;SDS011;66210;53.282;9.864;2023-04-24T05:03:02;3.58;;;1.50;;
77214;SDS011;66210;53.282;9.864;2023-04-24T05:05:46;2.60;;;1.50;;
77214;SDS011;66210;53.282;9.864;2023-04-24T05:08:13;2.88;;;2.00;;
77214;SDS011;66210;53.282;9.864;2023-04-24T05:10:52;1.42;;;1.13;;
77214;SDS011;66210;53.282;9.864;2023-04-24T05:13:20;1.42;;;1.30;;
77214;SDS011;66210;53.282;9.864;2023-04-24T05:16:01;0.98;;;0.98;;
77214;SDS011;66210;53.282;9.864;2023-04-24T05:18:28;1.45;;;1.33;;
77214;SDS011;66210;53.282;9.864;2023-04-24T05:20:54;1.77;;;1.40;;
77214;SDS011;66210;53.282;9.864;2023-04-24T05:23:21;1.33;;;1.10;;
77214;SDS011;66210;53.282;9.864;2023-04-24T05:25:48;1.80;;;1.20;;
77214;SDS011;66210;53.282;9.864;2023-04-24T05:28:15;1.35;;;1.20;;
77214;SDS011;66210;53.282;9.864;2023-04-24T05:30:41;1.48;;;1.15;;
77214;SDS011;66210;53.282;9.864;2023-04-24T05:33:08;1.40;;;1.30;;
77214;SDS011;66210;53.282;9.864;2023-04-24T05:35:36;1.83;;;1.40;;
77214;SDS011;66210;53.282;9.864;2023-04-24T05:38:03;1.48;;;1.30;;
77214;SDS011;66210;53.282;9.864;2023-04-24T05:40:29;3.42;;;1.42;;
77214;SDS011;66210;53.282;9.864;2023-04-24T05:42:56;5.00;;;1.48;;
77214;SDS011;66210;53.282;9.864;2023-04-24T05:45:23;1.52;;;1.40;;
77214;SDS011;66210;53.282;9.864;2023-04-24T05:47:49;2.38;;;1.40;;
77214;SDS011;66210;53.282;9.864;2023-04-24T05:50:18;2.45;;;1.50;;
77214;SDS011;66210;53.282;9.864;2023-04-24T05:52:45;2.40;;;1.50;;
77214;SDS011;66210;53.282;9.864;2023-04-24T05:55:12;2.53;;;1.60;;
77214;SDS011;66210;53.282;9.864;2023-04-24T05:57:39;2.47;;;1.67;;
77214;SDS011;66210;53.282;9.864;2023-04-24T06:00:06;2.30;;;1.70;;
77214;SDS011;66210;53.282;9.864;2023-04-24T06:02:34;2.85;;;1.63;;
77214;SDS011;66210;53.282;9.864;2023-04-24T06:05:01;3.22;;;1.85;;
77214;SDS011;66210;53.282;9.864;2023-04-24T06:07:28;2.58;;;1.88;;
77214;SDS011;66210;53.282;9.864;2023-04-24T06:09:55;4.28;;;2.08;;
77214;SDS011;66210;53.282;9.864;2023-04-24T06:12:23;1.98;;;1.67;;
77214;SDS011;66210;53.282;9.864;2023-04-24T06:14:49;2.45;;;1.77;;
77214;SDS011;66210;53.282;9.864;2023-04-24T06:17:16;2.08;;;1.70;;
77214;SDS011;66210;53.282;9.864;2023-04-24T06:19:43;4.03;;;1.70;;
77214;SDS011;66210;53.282;9.864;2023-04-24T06:22:10;2.63;;;1.70;;
77214;SDS011;66210;53.282;9.864;2023-04-24T06:24:37;2.58;;;1.70;;
77214;SDS011;66210;53.282;9.864;2023-04-24T06:27:03;3.42;;;1.83;;
77214;SDS011;66210;53.282;9.864;2023-04-24T06:29:30;2.80;;;2.10;;
77214;SDS011;66210;53.282;9.864;2023-04-24T06:31:57;5.03;;;2.22;;
77214;SDS011;66210;53.282;9.864;2023-04-24T06:34:23;3.80;;;2.13;;
77214;SDS011;66210;53.282;9.864;2023-04-24T06:36:50;2.72;;;1.92;;
77214;SDS011;66210;53.282;9.864;2023-04-24T06:39:17;2.88;;;2.30;;
77214;SDS011;66210;53.282;9.864;2023-04-24T06:41:44;4.35;;;2.60;;
77214;SDS011;66210;53.282;9.864;2023-04-24T06:44:10;3.30;;;2.13;;
77214;SDS011;66210;53.282;9.864;2023-04-24T06:46:37;3.63;;;2.20;;
77214;SDS011;66210;53.282;9.864;2023-04-24T06:51:33;3.33;;;2.17;;
77214;SDS011;66210;53.282;9.864;2023-04-24T06:54:00;2.53;;;2.10;;
77214;SDS011;66210;53.282;9.864;2023-04-24T06:56:27;3.83;;;2.58;;
77214;SDS011;66210;53.282;9.864;2023-04-24T06:58:55;2.80;;;2.10;;
77214;SDS011;66210;53.282;9.864;2023-04-24T07:01:22;2.80;;;2.30;;
77214;SDS011;66210;53.282;9.864;2023-04-24T07:03:49;4.10;;;2.22;;
77214;SDS011;66210;53.282;9.864;2023-04-24T07:06:16;3.55;;;2.72;;
77214;SDS011;66210;53.282;9.864;2023-04-24T07:08:44;3.50;;;2.30;;
77214;SDS011;66210;53.282;9.864;2023-04-24T07:11:11;4.35;;;3.40;;
77214;SDS011;66210;53.282;9.864;2023-04-24T07:13:38;3.88;;;2.42;;
77214;SDS011;66210;53.282;9.864;2023-04-24T07:16:08;4.13;;;2.63;;
77214;SDS011;66210;53.282;9.864;2023-04-24T07:18:35;4.20;;;2.50;;
77214;SDS011;66210;53.282;9.864;2023-04-24T07:21:02;8.80;;;2.72;;
77214;SDS011;66210;53.282;9.864;2023-04-24T07:23:29;4.78;;;2.47;;
77214;SDS011;66210;53.282;9.864;2023-04-24T07:25:57;3.00;;;2.33;;
77214;SDS011;66210;53.282;9.864;2023-04-24T07:28:24;4.05;;;2.90;;
77214;SDS011;66210;53.282;9.864;2023-04-24T07:30:51;5.80;;;2.97;;
77214;SDS011;66210;53.282;9.864;2023-04-24T07:33:20;3.65;;;2.85;;
77214;SDS011;66210;53.282;9.864;2023-04-24T07:35:47;6.00;;;2.83;;
77214;SDS011;66210;53.282;9.864;2023-04-24T07:38:14;4.57;;;3.55;;
77214;SDS011;66210;53.282;9.864;2023-04-24T07:40:40;6.63;;;3.60;;
77214;SDS011;66210;53.282;9.864;2023-04-24T07:43:07;5.55;;;3.22;;
77214;SDS011;66210;53.282;9.864;2023-04-24T07:45:34;4.38;;;3.65;;
77214;SDS011;66210;53.282;9.864;2023-04-24T07:48:03;5.53;;;3.72;;
77214;SDS011;66210;53.282;9.864;2023-04-24T07:50:30;6.35;;;3.80;;
77214;SDS011;66210;53.282;9.864;2023-04-24T07:52:57;5.57;;;4.00;;
77214;SDS011;66210;53.282;9.864;2023-04-24T07:55:24;6.97;;;4.47;;
77214;SDS011;66210;53.282;9.864;2023-04-24T07:57:53;4.97;;;3.92;;
77214;SDS011;66210;53.282;9.864;2023-04-24T08:00:20;6.45;;;3.85;;
77214;SDS011;66210;53.282;9.864;2023-04-24T08:02:47;4.20;;;3.80;;
77214;SDS011;66210;53.282;9.864;2023-04-24T08:05:14;6.25;;;4.10;;
77214;SDS011;66210;53.282;9.864;2023-04-24T08:07:41;4.47;;;3.33;;
77214;SDS011;66210;53.282;9.864;2023-04-24T08:10:09;5.82;;;3.80;;
77214;SDS011;66210;53.282;9.864;2023-04-24T08:12:37;5.57;;;4.03;;
77214;SDS011;66210;53.282;9.864;2023-04-24T08:15:04;6.50;;;3.70;;
77214;SDS011;66210;53.282;9.864;2023-04-24T08:17:32;6.20;;;4.00;;
77214;SDS011;66210;53.282;9.864;2023-04-24T08:19:58;6.53;;;4.20;;
77214;SDS011;66210;53.282;9.864;2023-04-24T08:22:28;6.75;;;4.28;;
77214;SDS011;66210;53.282;9.864;2023-04-24T08:24:54;5.35;;;3.75;;
77214;SDS011;66210;53.282;9.864;2023-04-24T08:27:22;5.07;;;3.53;;
77214;SDS011;66210;53.282;9.864;2023-04-24T08:29:49;5.35;;;3.90;;
77214;SDS011;66210;53.282;9.864;2023-04-24T08:32:16;7.18;;;4.00;;
77214;SDS011;66210;53.282;9.864;2023-04-24T08:34:43;4.40;;;3.63;;
77214;SDS011;66210;53.282;9.864;2023-04-24T08:37:09;5.47;;;4.32;;
77214;SDS011;66210;53.282;9.864;2023-04-24T08:39:36;6.10;;;4.20;;
77214;SDS011;66210;53.282;9.864;2023-04-24T08:42:04;6.75;;;4.10;;
77214;SDS011;66210;53.282;9.864;2023-04-24T08:44:34;4.82;;;3.65;;
77214;SDS011;66210;53.282;9.864;2023-04-24T08:47:02;4.57;;;3.60;;
77214;SDS011;66210;53.282;9.864;2023-04-24T08:49:29;6.47;;;4.07;;
77214;SDS011;66210;53.282;9.864;2023-04-24T08:51:56;6.20;;;4.25;;
77214;SDS011;66210;53.282;9.864;2023-04-24T08:54:22;7.38;;;4.03;;
77214;SDS011;66210;53.282;9.864;2023-04-24T08:56:49;4.30;;;3.90;;
77214;SDS011;66210;53.282;9.864;2023-04-24T08:59:16;4.03;;;3.38;;
77214;SDS011;66210;53.282;9.864;2023-04-24T09:01:44;7.22;;;4.43;;
77214;SDS011;66210;53.282;9.864;2023-04-24T09:04:13;6.03;;;3.92;;
77214;SDS011;66210;53.282;9.864;2023-04-24T09:06:42;4.35;;;3.67;;
77214;SDS011;66210;53.282;9.864;2023-04-24T09:09:09;6.20;;;4.25;;
77214;SDS011;66210;53.282;9.864;2023-04-24T09:11:37;5.22;;;3.75;;
77214;SDS011;66210;53.282;9.864;2023-04-24T09:14:04;5.25;;;3.83;;
77214;SDS011;66210;53.282;9.864;2023-04-24T09:16:31;8.85;;;4.75;;
77214;SDS011;66210;53.282;9.864;2023-04-24T09:19:01;8.57;;;4.40;;
77214;SDS011;66210;53.282;9.864;2023-04-24T09:21:33;8.63;;;5.10;;
77214;SDS011;66210;53.282;9.864;2023-04-24T09:24:01;6.38;;;4.65;;
77214;SDS011;66210;53.282;9.864;2023-04-24T09:26:36;8.77;;;4.63;;
77214;SDS011;66210;53.282;9.864;2023-04-24T09:29:03;7.43;;;4.72;;
77214;SDS011;66210;53.282;9.864;2023-04-24T09:31:31;6.38;;;5.30;;
77214;SDS011;66210;53.282;9.864;2023-04-24T09:34:02;7.60;;;5.38;;
77214;SDS011;66210;53.282;9.864;2023-04-24T09:36:34;7.50;;;5.47;;
77214;SDS011;66210;53.282;9.864;2023-04-24T09:39:05;10.27;;;5.63;;
77214;SDS011;66210;53.282;9.864;2023-04-24T09:41:35;8.60;;;5.25;;
77214;SDS011;66210;53.282;9.864;2023-04-24T09:44:18;8.95;;;5.13;;
77214;SDS011;66210;53.282;9.864;2023-04-24T09:46:51;9.77;;;5.15;;
77214;SDS011;66210;53.282;9.864;2023-04-24T09:49:25;8.77;;;5.55;;
77214;SDS011;66210;53.282;9.864;2023-04-24T09:52:04;8.68;;;5.63;;
77214;SDS011;66210;53.282;9.864;2023-04-24T09:54:38;11.73;;;5.30;;
77214;SDS011;66210;53.282;9.864;2023-04-24T09:57:05;10.70;;;6.28;;
77214;SDS011;66210;53.282;9.864;2023-04-24T09:59:34;11.65;;;6.00;;
77214;SDS011;66210;53.282;9.864;2023-04-24T10:02:03;9.80;;;6.07;;
77214;SDS011;66210;53.282;9.864;2023-04-24T10:04:53;8.73;;;6.25;;
77214;SDS011;66210;53.282;9.864;2023-04-24T10:07:22;10.27;;;5.72;;
77214;SDS011;66210;53.282;9.864;2023-04-24T10:09:52;8.43;;;5.60;;
77214;SDS011;66210;53.282;9.864;2023-04-24T10:12:19;10.35;;;6.28;;
77214;SDS011;66210;53.282;9.864;2023-04-24T10:14:48;12.38;;;7.00;;
77214;SDS011;66210;53.282;9.864;2023-04-24T10:17:15;8.85;;;5.68;;
77214;SDS011;66210;53.282;9.864;2023-04-24T10:19:42;9.40;;;5.95;;
77214;SDS011;66210;53.282;9.864;2023-04-24T10:22:10;12.50;;;6.25;;
77214;SDS011;66210;53.282;9.864;2023-04-24T10:24:37;8.35;;;6.50;;
77214;SDS011;66210;53.282;9.864;2023-04-24T10:27:05;11.00;;;6.55;;
77214;SDS011;66210;53.282;9.864;2023-04-24T10:29:32;12.02;;;6.85;;
77214;SDS011;66210;53.282;9.864;2023-04-24T10:34:28;13.63;;;7.05;;
77214;SDS011;66210;53.282;9.864;2023-04-24T10:36:55;12.65;;;6.95;;
77214;SDS011;66210;53.282;9.864;2023-04-24T10:39:23;8.13;;;5.72;;
77214;SDS011;66210;53.282;9.864;2023-04-24T10:44:20;9.48;;;5.53;;
77214;SDS011;66210;53.282;9.864;2023-04-24T10:46:52;10.30;;;6.30;;
77214;SDS011;66210;53.282;9.864;2023-04-24T10:49:27;7.35;;;5.40;;
77214;SDS011;66210;53.282;9.864;2023-04-24T10:51:59;10.15;;;5.85;;
77214;SDS011;66210;53.282;9.864;2023-04-24T10:54:29;9.80;;;6.03;;
77214;SDS011;66210;53.282;9.864;2023-04-24T10:59:46;8.90;;;5.25;;
77214;SDS011;66210;53.282;9.864;2023-04-24T11:02:14;8.82;;;5.32;;
77214;SDS011;66210;53.282;9.864;2023-04-24T11:04:42;7.72;;;4.88;;
77214;SDS011;66210;53.282;9.864;2023-04-24T11:07:12;10.77;;;4.95;;
77214;SDS011;66210;53.282;9.864;2023-04-24T11:09:39;5.95;;;4.40;;
77214;SDS011;66210;53.282;9.864;2023-04-24T11:12:09;9.10;;;4.72;;
77214;SDS011;66210;53.282;9.864;2023-04-24T11:17:36;6.72;;;4.40;;
77214;SDS011;66210;53.282;9.864;2023-04-24T11:22:53;7.47;;;4.40;;
77214;SDS011;66210;53.282;9.864;2023-04-24T11:25:21;6.38;;;4.25;;
77214;SDS011;66210;53.282;9.864;2023-04-24T11:27:49;5.53;;;4.03;;
77214;SDS011;66210;53.282;9.864;2023-04-24T11:30:17;6.68;;;4.72;;
77214;SDS011;66210;53.282;9.864;2023-04-24T11:32:50;8.10;;;4.13;;
77214;SDS011;66210;53.282;9.864;2023-04-24T11:35:21;5.68;;;4.32;;
77214;SDS011;66210;53.282;9.864;2023-04-24T11:37:54;5.90;;;3.92;;
77214;SDS011;66210;53.282;9.864;2023-04-24T11:40:38;7.75;;;4.22;;
77214;SDS011;66210;53.282;9.864;2023-04-24T11:43:05;7.45;;;4.10;;
77214;SDS011;66210;53.282;9.864;2023-04-24T11:45:34;7.80;;;4.00;;
77214;SDS011;66210;53.282;9.864;2023-04-24T11:48:02;6.60;;;4.00;;
77214;SDS011;66210;53.282;9.864;2023-04-24T11:50:30;5.80;;;3.55;;
77214;SDS011;66210;53.282;9.864;2023-04-24T11:52:57;5.75;;;3.40;;
77214;SDS011;66210;53.282;9.864;2023-04-24T11:55:25;4.25;;;3.53;;
77214;SDS011;66210;53.282;9.864;2023-04-24T11:57:54;4.80;;;3.67;;
77214;SDS011;66210;53.282;9.864;2023-04-24T12:00:23;6.63;;;3.17;;
77214;SDS011;66210;53.282;9.864;2023-04-24T12:03:02;6.95;;;3.80;;
77214;SDS011;66210;53.282;9.864;2023-04-24T12:05:31;7.13;;;3.90;;
77214;SDS011;66210;53.282;9.864;2023-04-24T12:07:58;6.03;;;3.35;;
77214;SDS011;66210;53.282;9.864;2023-04-24T12:10:26;5.47;;;3.08;;
77214;SDS011;66210;53.282;9.864;2023-04-24T12:12:55;5.70;;;2.95;;
77214;SDS011;66210;53.282;9.864;2023-04-24T12:15:23;4.20;;;3.25;;
77214;SDS011;66210;53.282;9.864;2023-04-24T12:17:50;5.22;;;2.90;;
77214;SDS011;66210;53.282;9.864;2023-04-24T12:20:23;7.30;;;3.50;;
77214;SDS011;66210;53.282;9.864;2023-04-24T12:22:57;4.50;;;2.92;;
77214;SDS011;66210;53.282;9.864;2023-04-24T12:25:26;4.47;;;2.90;;
77214;SDS011;66210;53.282;9.864;2023-04-24T12:30:25;6.63;;;2.63;;
77214;SDS011;66210;53.282;9.864;2023-04-24T12:32:56;4.03;;;2.47;;
77214;SDS011;66210;53.282;9.864;2023-04-24T12:35:25;4.80;;;2.75;;
77214;SDS011;66210;53.282;9.864;2023-04-24T12:37:54;4.15;;;2.80;;
77214;SDS011;66210;53.282;9.864;2023-04-24T12:40:21;4.82;;;2.63;;
77214;SDS011;66210;53.282;9.864;2023-04-24T12:42:52;4.43;;;2.85;;
77214;SDS011;66210;53.282;9.864;2023-04-24T12:45:19;4.35;;;2.75;;
77214;SDS011;66210;53.282;9.864;2023-04-24T12:47:46;3.08;;;2.47;;
77214;SDS011;66210;53.282;9.864;2023-04-24T12:50:15;6.63;;;2.63;;
77214;SDS011;66210;53.282;9.864;2023-04-24T12:52:42;5.03;;;2.60;;
77214;SDS011;66210;53.282;9.864;2023-04-24T12:55:10;4.05;;;2.53;;
77214;SDS011;66210;53.282;9.864;2023-04-24T12:57:38;5.40;;;2.50;;
77214;SDS011;66210;53.282;9.864;2023-04-24T13:00:06;3.15;;;2.60;;
77214;SDS011;66210;53.282;9.864;2023-04-24T13:02:34;3.90;;;2.38;;
77214;SDS011;66210;53.282;9.864;2023-04-24T13:05:01;4.55;;;2.50;;
77214;SDS011;66210;53.282;9.864;2023-04-24T13:07:28;3.00;;;2.50;;
77214;SDS011;66210;53.282;9.864;2023-04-24T13:09:56;4.30;;;2.95;;
77214;SDS011;66210;53.282;9.864;2023-04-24T13:12:23;3.13;;;2.45;;
77214;SDS011;66210;53.282;9.864;2023-04-24T13:14:52;3.17;;;2.63;;
77214;SDS011;66210;53.282;9.864;2023-04-24T13:17:19;4.10;;;2.30;;
77214;SDS011;66210;53.282;9.864;2023-04-24T13:19:48;4.05;;;2.65;;
77214;SDS011;66210;53.282;9.864;2023-04-24T13:22:16;4.15;;;2.45;;
77214;SDS011;66210;53.282;9.864;2023-04-24T13:24:45;2.90;;;2.42;;
77214;SDS011;66210;53.282;9.864;2023-04-24T13:27:11;3.28;;;2.60;;
77214;SDS011;66210;53.282;9.864;2023-04-24T13:29:38;4.50;;;2.70;;
77214;SDS011;66210;53.282;9.864;2023-04-24T13:32:05;3.40;;;2.60;;
77214;SDS011;66210;53.282;9.864;2023-04-24T13:34:32;4.75;;;2.90;;
77214;SDS011;66210;53.282;9.864;2023-04-24T13:37:00;4.82;;;2.72;;
77214;SDS011;66210;53.282;9.864;2023-04-24T13:39:28;3.22;;;2.33;;
77214;SDS011;66210;53.282;9.864;2023-04-24T13:41:54;5.20;;;3.03;;
77214;SDS011;66210;53.282;9.864;2023-04-24T13:44:21;6.30;;;3.00;;
77214;SDS011;66210;53.282;9.864;2023-04-24T13:46:49;4.05;;;2.80;;
77214;SDS011;66210;53.282;9.864;2023-04-24T13:49:20;4.40;;;3.08;;
77214;SDS011;66210;53.282;9.864;2023-04-24T13:51:49;4.47;;;2.30;;
77214;SDS011;66210;53.282;9.864;2023-04-24T13:54:15;3.05;;;2.47;;
77214;SDS011;66210;53.282;9.864;2023-04-24T13:56:42;3.47;;;2.70;;
77214;SDS011;66210;53.282;9.864;2023-04-24T13:59:09;3.72;;;2.50;;
77214;SDS011;66210;53.282;9.864;2023-04-24T14:01:36;2.90;;;2.60;;
77214;SDS011;66210;53.282;9.864;2023-04-24T14:04:02;2.97;;;2.17;;
77214;SDS011;66210;53.282;9.864;2023-04-24T14:06:29;3.40;;;2.30;;
77214;SDS011;66210;53.282;9.864;2023-04-24T14:08:57;3.42;;;2.03;;
77214;SDS011;66210;53.282;9.864;2023-04-24T14:11:23;2.58;;;1.80;;
77214;SDS011;66210;53.282;9.864;2023-04-24T14:13:50;4.20;;;2.05;;
77214;SDS011;66210;53.282;9.864;2023-04-24T14:16:16;2.55;;;1.80;;
77214;SDS011;66210;53.282;9.864;2023-04-24T14:18:43;2.97;;;1.60;;
77214;SDS011;66210;53.282;9.864;2023-04-24T14:21:10;2.50;;;1.73;;
77214;SDS011;66210;53.282;9.864;2023-04-24T14:23:36;2.70;;;1.55;;
77214;SDS011;66210;53.282;9.864;2023-04-24T14:26:03;1.40;;;1.30;;
77214;SDS011;66210;53.282;9.864;2023-04-24T14:28:30;1.55;;;1.45;;
77214;SDS011;66210;53.282;9.864;2023-04-24T14:30:56;2.92;;;1.40;;
77214;SDS011;66210;53.282;9.864;2023-04-24T14:33:23;3.90;;;1.23;;
77214;SDS011;66210;53.282;9.864;2023-04-24T14:35:49;1.30;;;1.20;;
77214;SDS011;66210;53.282;9.864;2023-04-24T14:38:16;1.42;;;1.27;;
77214;SDS011;66210;53.282;9.864;2023-04-24T14:40:42;1.00;;;1.00;;
77214;SDS011;66210;53.282;9.864;2023-04-24T14:43:29;1.27;;;0.98;;
77214;SDS011;66210;53.282;9.864;2023-04-24T14:45:56;1.30;;;1.20;;
77214;SDS011;66210;53.282;9.864;2023-04-24T14:48:22;3.95;;;1.30;;
77214;SDS011;66210;53.282;9.864;2023-04-24T14:50:49;1.88;;;1.40;;
77214;SDS011;66210;53.282;9.864;2023-04-24T14:53:16;1.58;;;1.25;;
77214;SDS011;66210;53.282;9.864;2023-04-24T14:55:42;1.52;;;1.42;;
77214;SDS011;66210;53.282;9.864;2023-04-24T14:58:09;1.88;;;1.67;;
77214;SDS011;66210;53.282;9.864;2023-04-24T15:00:35;1.73;;;1.63;;
77214;SDS011;66210;53.282;9.864;2023-04-24T15:03:02;2.22;;;1.80;;
77214;SDS011;66210;53.282;9.864;2023-04-24T15:05:29;2.00;;;1.80;;
77214;SDS011;66210;53.282;9.864;2023-04-24T15:07:56;2.13;;;1.83;;
77214;SDS011;66210;53.282;9.864;2023-04-24T15:10:23;3.33;;;2.03;;
77214;SDS011;66210;53.282;9.864;2023-04-24T15:12:51;2.20;;;2.00;;